sensor_id;sensor_type;location;lat;lon;timestamp;temperature;humidity
62916;DHT22;49010;51.230;-2.306;2022-12-15T00:00:11;-3.10;99.90
62916;DHT22;49010;51.230;-2.306;2022-12-15T00:04:11;-3.20;99.90
62916;DHT22;49010;51.230;-2.306;2022-12-15T00:08:12;-3.20;99.90
62916;DHT22;49010;51.230;-2.306;2022-12-15T00:12:12;-3.30;99.90
62916;DHT22;49010;51.230;-2.306;2022-12-15T00:16:13;-3.40;99.90
62916;DHT22;49010;51.230;-2.306;2022-12-15T00:20:14;-3.50;99.90
62916;DHT22;49010;51.230;-2.306;2022-12-15T00:24:14;-3.60;99.90
62916;DHT22;49010;51.230;-2.306;2022-12-15T00:28:14;-3.60;99.90
62916;DHT22;49010;51.230;-2.306;2022-12-15T00:32:15;-3.70;99.90
62916;DHT22;49010;51.230;-2.306;2022-12-15T00:36:15;-3.70;99.90
62916;DHT22;49010;51.230;-2.306;2022-12-15T00:40:16;-3.70;99.90
62916;DHT22;49010;51.230;-2.306;2022-12-15T00:43:58;-3.80;99.90
62916;DHT22;49010;51.230;-2.306;2022-12-15T00:47:40;-3.80;99.90
62916;DHT22;49010;51.230;-2.306;2022-12-15T00:51:22;-3.80;99.90
62916;DHT22;49010;51.230;-2.306;2022-12-15T00:55:22;-3.90;99.90
62916;DHT22;49010;51.230;-2.306;2022-12-15T00:59:22;-3.90;99.90
62916;DHT22;49010;51.230;-2.306;2022-12-15T01:03:23;-4.00;99.90
62916;DHT22;49010;51.230;-2.306;2022-12-15T01:07:24;-4.00;99.90
62916;DHT22;49010;51.230;-2.306;2022-12-15T01:11:30;-4.00;99.90
62916;DHT22;49010;51.230;-2.306;2022-12-15T01:15:30;-4.10;99.90
62916;DHT22;49010;51.230;-2.306;2022-12-15T01:19:32;-4.10;99.90
62916;DHT22;49010;51.230;-2.306;2022-12-15T01:23:32;-4.10;99.90
62916;DHT22;49010;51.230;-2.306;2022-12-15T01:27:15;-4.20;99.90
62916;DHT22;49010;51.230;-2.306;2022-12-15T01:30:57;-4.20;99.90
62916;DHT22;49010;51.230;-2.306;2022-12-15T01:34:39;-4.20;99.90
62916;DHT22;49010;51.230;-2.306;2022-12-15T01:38:21;-4.30;99.90
62916;DHT22;49010;51.230;-2.306;2022-12-15T01:42:02;-4.30;99.90
62916;DHT22;49010;51.230;-2.306;2022-12-15T01:46:02;-4.30;99.90
62916;DHT22;49010;51.230;-2.306;2022-12-15T01:49:44;-4.40;99.90
62916;DHT22;49010;51.230;-2.306;2022-12-15T01:53:33;-4.40;99.90
62916;DHT22;49010;51.230;-2.306;2022-12-15T01:57:25;-4.40;99.90
62916;DHT22;49010;51.230;-2.306;2022-12-15T02:01:10;-4.40;99.90
62916;DHT22;49010;51.230;-2.306;2022-12-15T02:04:54;-4.50;99.90
62916;DHT22;49010;51.230;-2.306;2022-12-15T02:08:40;-4.50;99.90
62916;DHT22;49010;51.230;-2.306;2022-12-15T02:16:48;-4.60;99.90
62916;DHT22;49010;51.230;-2.306;2022-12-15T02:20:51;-4.60;99.90
62916;DHT22;49010;51.230;-2.306;2022-12-15T02:28:35;-4.60;99.90
62916;DHT22;49010;51.230;-2.306;2022-12-15T02:32:48;-4.70;99.90
62916;DHT22;49010;51.230;-2.306;2022-12-15T02:37:04;-4.70;99.90
62916;DHT22;49010;51.230;-2.306;2022-12-15T02:40:46;-4.80;99.90
62916;DHT22;49010;51.230;-2.306;2022-12-15T02:44:34;-4.80;99.90
62916;DHT22;49010;51.230;-2.306;2022-12-15T02:48:37;-4.90;99.90
62916;DHT22;49010;51.230;-2.306;2022-12-15T02:52:46;-4.90;99.90
62916;DHT22;49010;51.230;-2.306;2022-12-15T02:56:43;-5.00;99.90
62916;DHT22;49010;51.230;-2.306;2022-12-15T03:00:27;-5.00;99.90
62916;DHT22;49010;51.230;-2.306;2022-12-15T03:04:12;-5.10;99.90
62916;DHT22;49010;51.230;-2.306;2022-12-15T03:07:53;-5.10;99.90
62916;DHT22;49010;51.230;-2.306;2022-12-15T03:11:36;-5.20;99.90
62916;DHT22;49010;51.230;-2.306;2022-12-15T03:15:18;-5.20;99.90
62916;DHT22;49010;51.230;-2.306;2022-12-15T03:19:00;-5.20;99.90
62916;DHT22;49010;51.230;-2.306;2022-12-15T03:22:41;-5.30;99.90
62916;DHT22;49010;51.230;-2.306;2022-12-15T03:26:23;-5.30;99.90
62916;DHT22;49010;51.230;-2.306;2022-12-15T03:30:06;-5.30;99.90
62916;DHT22;49010;51.230;-2.306;2022-12-15T03:33:47;-5.30;99.90
62916;DHT22;49010;51.230;-2.306;2022-12-15T03:37:29;-5.30;99.90
62916;DHT22;49010;51.230;-2.306;2022-12-15T03:41:11;-5.30;99.90
62916;DHT22;49010;51.230;-2.306;2022-12-15T03:44:53;-5.30;99.90
62916;DHT22;49010;51.230;-2.306;2022-12-15T03:48:34;-5.30;99.90
62916;DHT22;49010;51.230;-2.306;2022-12-15T03:52:16;-5.30;99.90
62916;DHT22;49010;51.230;-2.306;2022-12-15T03:55:58;-5.40;99.90
62916;DHT22;49010;51.230;-2.306;2022-12-15T03:59:40;-5.50;99.90
62916;DHT22;49010;51.230;-2.306;2022-12-15T04:03:22;-5.50;99.90
62916;DHT22;49010;51.230;-2.306;2022-12-15T04:07:03;-5.60;99.90
62916;DHT22;49010;51.230;-2.306;2022-12-15T04:10:45;-5.70;99.90
62916;DHT22;49010;51.230;-2.306;2022-12-15T04:14:27;-5.70;99.90
62916;DHT22;49010;51.230;-2.306;2022-12-15T04:18:09;-5.70;99.90
62916;DHT22;49010;51.230;-2.306;2022-12-15T04:21:51;-5.70;99.90
62916;DHT22;49010;51.230;-2.306;2022-12-15T04:25:33;-5.70;99.90
62916;DHT22;49010;51.230;-2.306;2022-12-15T04:29:33;-5.70;99.90
62916;DHT22;49010;51.230;-2.306;2022-12-15T04:33:36;-5.70;99.90
62916;DHT22;49010;51.230;-2.306;2022-12-15T04:37:36;-5.70;99.90
62916;DHT22;49010;51.230;-2.306;2022-12-15T04:41:37;-5.80;99.90
62916;DHT22;49010;51.230;-2.306;2022-12-15T04:45:37;-5.80;99.90
62916;DHT22;49010;51.230;-2.306;2022-12-15T04:49:38;-5.80;99.90
62916;DHT22;49010;51.230;-2.306;2022-12-15T04:53:38;-5.90;99.90
62916;DHT22;49010;51.230;-2.306;2022-12-15T04:57:38;-5.90;99.90
62916;DHT22;49010;51.230;-2.306;2022-12-15T05:01:39;-5.90;99.90
62916;DHT22;49010;51.230;-2.306;2022-12-15T05:05:39;-5.90;99.90
62916;DHT22;49010;51.230;-2.306;2022-12-15T05:09:39;-6.00;99.90
62916;DHT22;49010;51.230;-2.306;2022-12-15T05:13:44;-6.00;99.90
62916;DHT22;49010;51.230;-2.306;2022-12-15T05:17:44;-6.00;99.90
62916;DHT22;49010;51.230;-2.306;2022-12-15T05:21:44;-6.00;99.90
62916;DHT22;49010;51.230;-2.306;2022-12-15T05:25:45;-6.10;99.90
62916;DHT22;49010;51.230;-2.306;2022-12-15T05:29:45;-6.10;99.90
62916;DHT22;49010;51.230;-2.306;2022-12-15T05:33:46;-6.10;99.90
62916;DHT22;49010;51.230;-2.306;2022-12-15T05:37:27;-6.10;99.90
62916;DHT22;49010;51.230;-2.306;2022-12-15T05:41:09;-6.10;99.90
62916;DHT22;49010;51.230;-2.306;2022-12-15T05:44:51;-6.10;99.90
62916;DHT22;49010;51.230;-2.306;2022-12-15T05:48:32;-6.10;99.90
62916;DHT22;49010;51.230;-2.306;2022-12-15T05:52:14;-6.10;99.90
62916;DHT22;49010;51.230;-2.306;2022-12-15T05:56:04;-6.20;99.90
62916;DHT22;49010;51.230;-2.306;2022-12-15T05:59:46;-6.20;99.90
62916;DHT22;49010;51.230;-2.306;2022-12-15T06:03:27;-6.30;99.90
62916;DHT22;49010;51.230;-2.306;2022-12-15T06:07:09;-6.30;99.90
62916;DHT22;49010;51.230;-2.306;2022-12-15T06:10:52;-6.30;99.90
62916;DHT22;49010;51.230;-2.306;2022-12-15T06:14:35;-6.40;99.90
62916;DHT22;49010;51.230;-2.306;2022-12-15T06:18:16;-6.40;99.90
62916;DHT22;49010;51.230;-2.306;2022-12-15T06:21:58;-6.40;99.90
62916;DHT22;49010;51.230;-2.306;2022-12-15T06:25:40;-6.50;99.90
62916;DHT22;49010;51.230;-2.306;2022-12-15T06:29:22;-6.50;99.90
62916;DHT22;49010;51.230;-2.306;2022-12-15T06:33:03;-6.50;99.90
62916;DHT22;49010;51.230;-2.306;2022-12-15T06:36:45;-6.50;99.90
62916;DHT22;49010;51.230;-2.306;2022-12-15T06:40:27;-6.60;99.90
62916;DHT22;49010;51.230;-2.306;2022-12-15T06:44:15;-6.60;99.90
62916;DHT22;49010;51.230;-2.306;2022-12-15T06:47:57;-6.60;99.90
62916;DHT22;49010;51.230;-2.306;2022-12-15T06:51:42;-6.70;99.90
62916;DHT22;49010;51.230;-2.306;2022-12-15T06:55:25;-6.70;99.90
62916;DHT22;49010;51.230;-2.306;2022-12-15T06:59:07;-6.70;99.90
62916;DHT22;49010;51.230;-2.306;2022-12-15T07:02:51;-6.80;99.90
62916;DHT22;49010;51.230;-2.306;2022-12-15T07:06:34;-6.80;99.90
62916;DHT22;49010;51.230;-2.306;2022-12-15T07:10:17;-6.80;99.90
62916;DHT22;49010;51.230;-2.306;2022-12-15T07:13:59;-6.80;99.90
62916;DHT22;49010;51.230;-2.306;2022-12-15T07:17:41;-6.80;99.90
62916;DHT22;49010;51.230;-2.306;2022-12-15T07:21:22;-6.90;99.90
62916;DHT22;49010;51.230;-2.306;2022-12-15T07:25:05;-6.90;99.90
62916;DHT22;49010;51.230;-2.306;2022-12-15T07:28:47;-7.00;99.90
62916;DHT22;49010;51.230;-2.306;2022-12-15T07:32:29;-7.00;99.90
62916;DHT22;49010;51.230;-2.306;2022-12-15T07:36:11;-7.00;99.90
62916;DHT22;49010;51.230;-2.306;2022-12-15T07:39:53;-7.10;99.90
62916;DHT22;49010;51.230;-2.306;2022-12-15T07:43:36;-7.10;99.90
62916;DHT22;49010;51.230;-2.306;2022-12-15T07:47:19;-7.10;99.90
62916;DHT22;49010;51.230;-2.306;2022-12-15T07:51:05;-7.10;99.90
62916;DHT22;49010;51.230;-2.306;2022-12-15T07:54:56;-7.10;99.90
62916;DHT22;49010;51.230;-2.306;2022-12-15T07:58:37;-7.10;99.90
62916;DHT22;49010;51.230;-2.306;2022-12-15T08:02:19;-7.20;99.90
62916;DHT22;49010;51.230;-2.306;2022-12-15T08:06:12;-7.20;99.90
62916;DHT22;49010;51.230;-2.306;2022-12-15T08:09:54;-7.20;99.90
62916;DHT22;49010;51.230;-2.306;2022-12-15T08:13:37;-7.20;99.90
62916;DHT22;49010;51.230;-2.306;2022-12-15T08:17:39;-7.20;99.90
62916;DHT22;49010;51.230;-2.306;2022-12-15T08:21:22;-7.20;99.90
62916;DHT22;49010;51.230;-2.306;2022-12-15T08:25:04;-7.30;99.90
62916;DHT22;49010;51.230;-2.306;2022-12-15T08:28:45;-7.30;99.90
62916;DHT22;49010;51.230;-2.306;2022-12-15T08:32:27;-7.30;99.90
62916;DHT22;49010;51.230;-2.306;2022-12-15T08:36:11;-7.30;99.90
62916;DHT22;49010;51.230;-2.306;2022-12-15T08:39:53;-7.30;99.90
62916;DHT22;49010;51.230;-2.306;2022-12-15T08:43:36;-7.30;99.90
62916;DHT22;49010;51.230;-2.306;2022-12-15T08:47:26;-7.30;99.90
62916;DHT22;49010;51.230;-2.306;2022-12-15T08:51:08;-7.30;99.90
62916;DHT22;49010;51.230;-2.306;2022-12-15T08:54:50;-7.30;99.90
62916;DHT22;49010;51.230;-2.306;2022-12-15T08:58:32;-7.30;99.90
62916;DHT22;49010;51.230;-2.306;2022-12-15T09:02:14;-7.20;99.90
62916;DHT22;49010;51.230;-2.306;2022-12-15T09:06:03;-7.20;99.90
62916;DHT22;49010;51.230;-2.306;2022-12-15T09:09:45;-7.20;99.90
62916;DHT22;49010;51.230;-2.306;2022-12-15T09:13:27;-7.10;99.90
62916;DHT22;49010;51.230;-2.306;2022-12-15T09:17:10;-7.10;99.90
62916;DHT22;49010;51.230;-2.306;2022-12-15T09:20:52;-7.10;99.90
62916;DHT22;49010;51.230;-2.306;2022-12-15T09:24:36;-7.00;99.90
62916;DHT22;49010;51.230;-2.306;2022-12-15T09:28:18;-7.00;99.90
62916;DHT22;49010;51.230;-2.306;2022-12-15T09:32:00;-6.90;99.90
62916;DHT22;49010;51.230;-2.306;2022-12-15T09:35:49;-6.90;99.90
62916;DHT22;49010;51.230;-2.306;2022-12-15T09:39:31;-6.70;99.90
62916;DHT22;49010;51.230;-2.306;2022-12-15T09:43:18;-6.60;99.90
62916;DHT22;49010;51.230;-2.306;2022-12-15T09:47:29;-6.20;99.90
62916;DHT22;49010;51.230;-2.306;2022-12-15T09:51:15;-5.60;99.90
62916;DHT22;49010;51.230;-2.306;2022-12-15T09:54:58;-5.20;99.90
62916;DHT22;49010;51.230;-2.306;2022-12-15T10:06:34;-3.90;99.90
62916;DHT22;49010;51.230;-2.306;2022-12-15T10:10:30;-3.50;99.90
62916;DHT22;49010;51.230;-2.306;2022-12-15T10:14:26;-3.00;99.90
62916;DHT22;49010;51.230;-2.306;2022-12-15T10:18:21;-2.50;99.90
62916;DHT22;49010;51.230;-2.306;2022-12-15T10:22:04;-1.90;99.90
62916;DHT22;49010;51.230;-2.306;2022-12-15T10:25:57;-1.30;99.90
62916;DHT22;49010;51.230;-2.306;2022-12-15T10:29:44;-0.50;99.90
62916;DHT22;49010;51.230;-2.306;2022-12-15T10:33:35;0.50;99.90
62916;DHT22;49010;51.230;-2.306;2022-12-15T10:37:19;1.40;99.90
62916;DHT22;49010;51.230;-2.306;2022-12-15T10:41:06;2.30;99.90
62916;DHT22;49010;51.230;-2.306;2022-12-15T10:44:52;3.10;99.90
62916;DHT22;49010;51.230;-2.306;2022-12-15T10:48:36;3.70;99.40
62916;DHT22;49010;51.230;-2.306;2022-12-15T10:52:36;4.10;94.80
62916;DHT22;49010;51.230;-2.306;2022-12-15T10:56:27;4.30;95.60
62916;DHT22;49010;51.230;-2.306;2022-12-15T11:03:56;3.80;89.10
62916;DHT22;49010;51.230;-2.306;2022-12-15T11:08:11;3.40;88.30
62916;DHT22;49010;51.230;-2.306;2022-12-15T11:11:54;2.90;90.20
62916;DHT22;49010;51.230;-2.306;2022-12-15T11:15:55;2.50;89.10
62916;DHT22;49010;51.230;-2.306;2022-12-15T11:19:49;2.00;89.50
62916;DHT22;49010;51.230;-2.306;2022-12-15T11:27:44;1.10;90.90
62916;DHT22;49010;51.230;-2.306;2022-12-15T11:31:36;0.90;91.10
62916;DHT22;49010;51.230;-2.306;2022-12-15T11:35:24;0.70;91.50
62916;DHT22;49010;51.230;-2.306;2022-12-15T11:46:49;0.10;93.50
62916;DHT22;49010;51.230;-2.306;2022-12-15T11:58:35;-0.10;95.80
62916;DHT22;49010;51.230;-2.306;2022-12-15T12:02:54;-0.20;95.90
62916;DHT22;49010;51.230;-2.306;2022-12-15T12:14:48;-0.40;97.90
62916;DHT22;49010;51.230;-2.306;2022-12-15T12:18:36;-0.30;98.00
62916;DHT22;49010;51.230;-2.306;2022-12-15T12:22:35;-0.40;98.30
62916;DHT22;49010;51.230;-2.306;2022-12-15T12:27:32;-0.40;98.60
62916;DHT22;49010;51.230;-2.306;2022-12-15T12:30:48;-0.40;99.20
62916;DHT22;49010;51.230;-2.306;2022-12-15T12:34:49;-0.30;99.40
62916;DHT22;49010;51.230;-2.306;2022-12-15T12:38:54;-0.30;99.60
62916;DHT22;49010;51.230;-2.306;2022-12-15T12:42:40;-0.30;99.90
62916;DHT22;49010;51.230;-2.306;2022-12-15T12:46:41;-0.30;99.90
62916;DHT22;49010;51.230;-2.306;2022-12-15T12:50:28;-0.30;99.90
62916;DHT22;49010;51.230;-2.306;2022-12-15T12:58:43;-0.30;99.90
62916;DHT22;49010;51.230;-2.306;2022-12-15T13:10:19;-0.30;99.90
62916;DHT22;49010;51.230;-2.306;2022-12-15T13:14:01;-0.30;99.90
62916;DHT22;49010;51.230;-2.306;2022-12-15T13:17:57;-0.30;99.90
62916;DHT22;49010;51.230;-2.306;2022-12-15T13:25:34;-0.20;99.90
62916;DHT22;49010;51.230;-2.306;2022-12-15T13:29:19;-0.20;99.90
62916;DHT22;49010;51.230;-2.306;2022-12-15T13:33:17;-0.10;99.90
62916;DHT22;49010;51.230;-2.306;2022-12-15T13:36:59;-0.10;99.90
62916;DHT22;49010;51.230;-2.306;2022-12-15T13:40:52;-0.10;99.90
62916;DHT22;49010;51.230;-2.306;2022-12-15T13:44:39;0.00;99.90
62916;DHT22;49010;51.230;-2.306;2022-12-15T13:52:22;0.10;99.90
62916;DHT22;49010;51.230;-2.306;2022-12-15T14:00:23;0.10;99.90
62916;DHT22;49010;51.230;-2.306;2022-12-15T14:04:09;0.10;99.90
62916;DHT22;49010;51.230;-2.306;2022-12-15T14:07:58;0.10;99.90
62916;DHT22;49010;51.230;-2.306;2022-12-15T14:11:42;0.10;99.90
62916;DHT22;49010;51.230;-2.306;2022-12-15T14:15:34;0.10;99.90
62916;DHT22;49010;51.230;-2.306;2022-12-15T14:19:20;0.10;99.90
62916;DHT22;49010;51.230;-2.306;2022-12-15T14:23:17;0.10;99.90
62916;DHT22;49010;51.230;-2.306;2022-12-15T14:26:59;0.10;99.90
62916;DHT22;49010;51.230;-2.306;2022-12-15T14:30:41;0.10;99.90
62916;DHT22;49010;51.230;-2.306;2022-12-15T14:34:30;0.10;99.90
62916;DHT22;49010;51.230;-2.306;2022-12-15T14:38:26;0.10;99.90
62916;DHT22;49010;51.230;-2.306;2022-12-15T14:42:19;0.10;99.90
62916;DHT22;49010;51.230;-2.306;2022-12-15T14:46:09;0.20;99.90
62916;DHT22;49010;51.230;-2.306;2022-12-15T14:49:53;0.20;99.90
62916;DHT22;49010;51.230;-2.306;2022-12-15T14:53:39;0.60;99.90
62916;DHT22;49010;51.230;-2.306;2022-12-15T14:57:28;1.10;99.90
62916;DHT22;49010;51.230;-2.306;2022-12-15T15:01:34;1.80;99.90
62916;DHT22;49010;51.230;-2.306;2022-12-15T15:05:26;2.10;99.90
62916;DHT22;49010;51.230;-2.306;2022-12-15T15:09:31;2.00;99.90
62916;DHT22;49010;51.230;-2.306;2022-12-15T15:13:19;1.70;99.90
62916;DHT22;49010;51.230;-2.306;2022-12-15T15:20:53;1.10;99.90
62916;DHT22;49010;51.230;-2.306;2022-12-15T15:24:37;0.90;99.90
62916;DHT22;49010;51.230;-2.306;2022-12-15T15:32:17;0.60;99.90
62916;DHT22;49010;51.230;-2.306;2022-12-15T15:36:01;0.50;99.90
62916;DHT22;49010;51.230;-2.306;2022-12-15T15:39:47;0.40;99.90
62916;DHT22;49010;51.230;-2.306;2022-12-15T15:43:29;0.30;99.90
62916;DHT22;49010;51.230;-2.306;2022-12-15T15:47:23;0.20;99.90
62916;DHT22;49010;51.230;-2.306;2022-12-15T15:51:05;0.10;99.90
62916;DHT22;49010;51.230;-2.306;2022-12-15T15:54:47;0.00;99.90
62916;DHT22;49010;51.230;-2.306;2022-12-15T15:58:29;-0.10;99.90
62916;DHT22;49010;51.230;-2.306;2022-12-15T16:02:12;-0.20;99.90
62916;DHT22;49010;51.230;-2.306;2022-12-15T16:05:55;-0.20;99.90
62916;DHT22;49010;51.230;-2.306;2022-12-15T16:09:37;-0.30;99.90
62916;DHT22;49010;51.230;-2.306;2022-12-15T16:13:20;-0.40;99.90
62916;DHT22;49010;51.230;-2.306;2022-12-15T16:17:08;-0.40;99.90
62916;DHT22;49010;51.230;-2.306;2022-12-15T16:20:50;-0.50;99.90
62916;DHT22;49010;51.230;-2.306;2022-12-15T16:24:32;-0.60;99.90
62916;DHT22;49010;51.230;-2.306;2022-12-15T16:28:22;-0.70;99.90
62916;DHT22;49010;51.230;-2.306;2022-12-15T16:32:07;-0.70;99.90
62916;DHT22;49010;51.230;-2.306;2022-12-15T16:35:49;-0.80;99.90
62916;DHT22;49010;51.230;-2.306;2022-12-15T16:39:33;-0.90;99.90
62916;DHT22;49010;51.230;-2.306;2022-12-15T16:43:18;-0.90;99.90
62916;DHT22;49010;51.230;-2.306;2022-12-15T16:47:00;-1.00;99.90
62916;DHT22;49010;51.230;-2.306;2022-12-15T16:50:44;-1.10;99.90
62916;DHT22;49010;51.230;-2.306;2022-12-15T16:54:29;-1.10;99.90
62916;DHT22;49010;51.230;-2.306;2022-12-15T16:58:15;-1.10;99.90
62916;DHT22;49010;51.230;-2.306;2022-12-15T17:01:57;-1.20;99.90
62916;DHT22;49010;51.230;-2.306;2022-12-15T17:05:42;-1.20;99.90
62916;DHT22;49010;51.230;-2.306;2022-12-15T17:09:24;-1.20;99.90
62916;DHT22;49010;51.230;-2.306;2022-12-15T17:13:19;-1.20;99.90
62916;DHT22;49010;51.230;-2.306;2022-12-15T17:17:11;-1.30;99.90
62916;DHT22;49010;51.230;-2.306;2022-12-15T17:21:07;-1.30;99.90
62916;DHT22;49010;51.230;-2.306;2022-12-15T17:24:51;-1.40;99.90
62916;DHT22;49010;51.230;-2.306;2022-12-15T17:28:34;-1.40;99.90
62916;DHT22;49010;51.230;-2.306;2022-12-15T17:32:17;-1.50;99.90
62916;DHT22;49010;51.230;-2.306;2022-12-15T17:36:01;-1.50;99.90
62916;DHT22;49010;51.230;-2.306;2022-12-15T17:39:44;-1.60;99.90
62916;DHT22;49010;51.230;-2.306;2022-12-15T17:43:31;-1.60;99.90
62916;DHT22;49010;51.230;-2.306;2022-12-15T17:47:16;-1.70;99.90
62916;DHT22;49010;51.230;-2.306;2022-12-15T17:50:58;-1.70;99.90
62916;DHT22;49010;51.230;-2.306;2022-12-15T17:54:40;-1.80;99.90
62916;DHT22;49010;51.230;-2.306;2022-12-15T17:58:24;-1.80;99.90
62916;DHT22;49010;51.230;-2.306;2022-12-15T18:02:10;-1.90;99.90
62916;DHT22;49010;51.230;-2.306;2022-12-15T18:05:53;-2.00;99.90
62916;DHT22;49010;51.230;-2.306;2022-12-15T18:09:35;-2.00;99.90
62916;DHT22;49010;51.230;-2.306;2022-12-15T18:17:01;-2.10;99.90
62916;DHT22;49010;51.230;-2.306;2022-12-15T18:20:44;-2.20;99.90
62916;DHT22;49010;51.230;-2.306;2022-12-15T18:24:26;-2.20;99.90
62916;DHT22;49010;51.230;-2.306;2022-12-15T18:28:22;-2.30;99.90
62916;DHT22;49010;51.230;-2.306;2022-12-15T18:32:04;-2.30;99.90
62916;DHT22;49010;51.230;-2.306;2022-12-15T18:35:49;-2.40;99.90
62916;DHT22;49010;51.230;-2.306;2022-12-15T18:39:31;-2.40;99.90
62916;DHT22;49010;51.230;-2.306;2022-12-15T18:43:15;-2.40;99.90
62916;DHT22;49010;51.230;-2.306;2022-12-15T18:46:57;-2.50;99.90
62916;DHT22;49010;51.230;-2.306;2022-12-15T18:50:39;-2.60;99.90
62916;DHT22;49010;51.230;-2.306;2022-12-15T18:54:23;-2.60;99.90
62916;DHT22;49010;51.230;-2.306;2022-12-15T18:58:20;-2.70;99.90
62916;DHT22;49010;51.230;-2.306;2022-12-15T19:02:03;-2.70;99.90
62916;DHT22;49010;51.230;-2.306;2022-12-15T19:05:46;-2.80;99.90
62916;DHT22;49010;51.230;-2.306;2022-12-15T19:09:28;-2.80;99.90
62916;DHT22;49010;51.230;-2.306;2022-12-15T19:13:13;-2.90;99.90
62916;DHT22;49010;51.230;-2.306;2022-12-15T19:16:56;-2.90;99.90
62916;DHT22;49010;51.230;-2.306;2022-12-15T19:20:56;-3.00;99.90
62916;DHT22;49010;51.230;-2.306;2022-12-15T19:24:57;-3.00;99.90
62916;DHT22;49010;51.230;-2.306;2022-12-15T19:28:39;-3.10;99.90
62916;DHT22;49010;51.230;-2.306;2022-12-15T19:32:22;-3.10;99.90
62916;DHT22;49010;51.230;-2.306;2022-12-15T19:36:14;-3.20;99.90
62916;DHT22;49010;51.230;-2.306;2022-12-15T19:39:58;-3.30;99.90
62916;DHT22;49010;51.230;-2.306;2022-12-15T19:43:41;-3.30;99.90
62916;DHT22;49010;51.230;-2.306;2022-12-15T19:47:23;-3.40;99.90
62916;DHT22;49010;51.230;-2.306;2022-12-15T19:51:16;-3.40;99.90
62916;DHT22;49010;51.230;-2.306;2022-12-15T19:54:58;-3.50;99.90
62916;DHT22;49010;51.230;-2.306;2022-12-15T19:58:42;-3.50;99.90
62916;DHT22;49010;51.230;-2.306;2022-12-15T20:02:24;-3.50;99.90
62916;DHT22;49010;51.230;-2.306;2022-12-15T20:06:14;-3.60;99.90
62916;DHT22;49010;51.230;-2.306;2022-12-15T20:09:57;-3.60;99.90
62916;DHT22;49010;51.230;-2.306;2022-12-15T20:13:39;-3.60;99.90
62916;DHT22;49010;51.230;-2.306;2022-12-15T20:17:21;-3.60;99.90
62916;DHT22;49010;51.230;-2.306;2022-12-15T20:21:03;-3.70;99.90
62916;DHT22;49010;51.230;-2.306;2022-12-15T20:24:45;-3.70;99.90
62916;DHT22;49010;51.230;-2.306;2022-12-15T20:28:28;-3.70;99.90
62916;DHT22;49010;51.230;-2.306;2022-12-15T20:32:16;-3.80;99.90
62916;DHT22;49010;51.230;-2.306;2022-12-15T20:35:59;-3.80;99.90
62916;DHT22;49010;51.230;-2.306;2022-12-15T20:39:41;-3.90;99.90
62916;DHT22;49010;51.230;-2.306;2022-12-15T20:43:24;-3.90;99.90
62916;DHT22;49010;51.230;-2.306;2022-12-15T20:47:18;-4.00;99.90
62916;DHT22;49010;51.230;-2.306;2022-12-15T20:51:01;-4.00;99.90
62916;DHT22;49010;51.230;-2.306;2022-12-15T20:54:50;-4.00;99.90
62916;DHT22;49010;51.230;-2.306;2022-12-15T20:58:33;-4.10;99.90
62916;DHT22;49010;51.230;-2.306;2022-12-15T21:02:21;-4.20;99.90
62916;DHT22;49010;51.230;-2.306;2022-12-15T21:06:04;-4.20;99.90
62916;DHT22;49010;51.230;-2.306;2022-12-15T21:09:46;-4.20;99.90
62916;DHT22;49010;51.230;-2.306;2022-12-15T21:13:30;-4.30;99.90
62916;DHT22;49010;51.230;-2.306;2022-12-15T21:17:15;-4.30;99.90
62916;DHT22;49010;51.230;-2.306;2022-12-15T21:20:57;-4.30;99.90
62916;DHT22;49010;51.230;-2.306;2022-12-15T21:24:42;-4.30;99.90
62916;DHT22;49010;51.230;-2.306;2022-12-15T21:28:24;-4.40;99.90
62916;DHT22;49010;51.230;-2.306;2022-12-15T21:32:06;-4.40;99.90
62916;DHT22;49010;51.230;-2.306;2022-12-15T21:35:48;-4.40;99.90
62916;DHT22;49010;51.230;-2.306;2022-12-15T21:39:33;-4.40;99.90
62916;DHT22;49010;51.230;-2.306;2022-12-15T21:43:15;-4.40;99.90
62916;DHT22;49010;51.230;-2.306;2022-12-15T21:46:57;-4.50;99.90
62916;DHT22;49010;51.230;-2.306;2022-12-15T21:50:40;-4.50;99.90
62916;DHT22;49010;51.230;-2.306;2022-12-15T21:54:29;-4.50;99.90
62916;DHT22;49010;51.230;-2.306;2022-12-15T21:58:17;-4.50;99.90
62916;DHT22;49010;51.230;-2.306;2022-12-15T22:02:00;-4.60;99.90
62916;DHT22;49010;51.230;-2.306;2022-12-15T22:05:42;-4.60;99.90
62916;DHT22;49010;51.230;-2.306;2022-12-15T22:09:24;-4.70;99.90
62916;DHT22;49010;51.230;-2.306;2022-12-15T22:13:10;-4.70;99.90
62916;DHT22;49010;51.230;-2.306;2022-12-15T22:16:53;-4.70;99.90
62916;DHT22;49010;51.230;-2.306;2022-12-15T22:20:35;-4.70;99.90
62916;DHT22;49010;51.230;-2.306;2022-12-15T22:24:17;-4.70;99.90
62916;DHT22;49010;51.230;-2.306;2022-12-15T22:27:59;-4.80;99.90
62916;DHT22;49010;51.230;-2.306;2022-12-15T22:31:41;-4.80;99.90
62916;DHT22;49010;51.230;-2.306;2022-12-15T22:35:25;-4.80;99.90
62916;DHT22;49010;51.230;-2.306;2022-12-15T22:39:07;-4.90;99.90
62916;DHT22;49010;51.230;-2.306;2022-12-15T22:42:54;-4.90;99.90
62916;DHT22;49010;51.230;-2.306;2022-12-15T22:46:37;-4.90;99.90
62916;DHT22;49010;51.230;-2.306;2022-12-15T22:50:24;-4.90;99.90
62916;DHT22;49010;51.230;-2.306;2022-12-15T22:54:19;-5.00;99.90
62916;DHT22;49010;51.230;-2.306;2022-12-15T22:58:07;-5.10;99.90
62916;DHT22;49010;51.230;-2.306;2022-12-15T23:01:49;-5.10;99.90
62916;DHT22;49010;51.230;-2.306;2022-12-15T23:05:32;-5.10;99.90
62916;DHT22;49010;51.230;-2.306;2022-12-15T23:09:13;-5.10;99.90
62916;DHT22;49010;51.230;-2.306;2022-12-15T23:12:55;-5.10;99.90
62916;DHT22;49010;51.230;-2.306;2022-12-15T23:16:37;-5.20;99.90
62916;DHT22;49010;51.230;-2.306;2022-12-15T23:20:19;-5.20;99.90
62916;DHT22;49010;51.230;-2.306;2022-12-15T23:24:01;-5.30;99.90
62916;DHT22;49010;51.230;-2.306;2022-12-15T23:27:43;-5.30;99.90
62916;DHT22;49010;51.230;-2.306;2022-12-15T23:31:25;-5.30;99.90
62916;DHT22;49010;51.230;-2.306;2022-12-15T23:35:07;-5.40;99.90
62916;DHT22;49010;51.230;-2.306;2022-12-15T23:38:49;-5.40;99.90
62916;DHT22;49010;51.230;-2.306;2022-12-15T23:42:33;-5.40;99.90
62916;DHT22;49010;51.230;-2.306;2022-12-15T23:46:14;-5.40;99.90
62916;DHT22;49010;51.230;-2.306;2022-12-15T23:49:56;-5.50;99.90
62916;DHT22;49010;51.230;-2.306;2022-12-15T23:53:39;-5.40;99.90
62916;DHT22;49010;51.230;-2.306;2022-12-15T23:57:21;-5.50;99.90
